createdAt,value
2022-08-26T04:30:58.471Z,144.00
2022-08-26T04:31:58.416Z,156.00
2022-08-26T04:32:58.411Z,172.00
2022-08-26T04:33:58.378Z,188.00
2022-08-26T04:34:58.408Z,204.00
2022-08-26T04:35:58.348Z,220.00
2022-08-26T04:36:58.373Z,236.00
2022-08-26T04:37:58.329Z,260.00
2022-08-26T04:38:58.318Z,276.00
2022-08-26T04:39:58.342Z,296.00
2022-08-26T04:40:58.299Z,320.00
2022-08-26T04:41:58.288Z,336.00
2022-08-26T04:42:58.267Z,356.00
2022-08-26T04:43:58.248Z,380.00
2022-08-26T04:45:05.859Z,400.00
2022-08-26T04:45:58.243Z,420.00
2022-08-26T04:46:58.224Z,444.00
2022-08-26T04:47:58.256Z,468.00
2022-08-26T04:48:58.184Z,492.00
2022-08-26T04:49:58.175Z,512.00
2022-08-26T04:50:58.189Z,532.00
2022-08-26T04:51:58.165Z,552.00
2022-08-26T04:52:58.135Z,572.00
2022-08-26T04:53:58.126Z,596.00
2022-08-26T04:54:58.126Z,624.00
2022-08-26T04:55:58.113Z,652.00
2022-08-26T04:56:58.104Z,680.00
2022-08-26T04:57:58.090Z,708.00
2022-08-26T04:58:58.064Z,740.00
2022-08-26T04:59:58.047Z,780.00
2022-08-26T05:00:58.034Z,812.00
2022-08-26T05:01:58.055Z,840.00
2022-08-26T05:02:58.005Z,864.00
2022-08-26T05:03:58.024Z,888.00
2022-08-26T05:04:57.984Z,916.00
2022-08-26T05:05:57.971Z,948.00
2022-08-26T05:07:02.403Z,992.00
2022-08-26T05:07:58.945Z,1044.00
2022-08-26T05:08:57.953Z,1092.00
2022-08-26T05:09:57.914Z,1120.00
2022-08-26T05:10:57.912Z,1164.00
2022-08-26T05:11:57.941Z,1216.00
2022-08-26T05:12:57.875Z,1264.00
2022-08-26T05:14:00.335Z,1312.00
2022-08-26T05:14:57.855Z,1348.00
2022-08-26T05:16:00.009Z,1392.00
2022-08-26T05:16:57.842Z,1440.00
2022-08-26T05:17:57.854Z,1484.00
2022-08-26T05:18:57.804Z,1528.00
2022-08-26T05:19:57.783Z,1548.00
2022-08-26T05:20:57.793Z,1572.00
2022-08-26T05:21:57.764Z,1600.00
2022-08-26T05:22:57.753Z,1636.00
2022-08-26T05:23:57.744Z,1668.00
2022-08-26T05:24:57.724Z,1692.00
2022-08-26T05:26:00.442Z,1712.00
2022-08-26T05:26:57.724Z,1736.00
2022-08-26T05:27:57.703Z,1752.00
2022-08-26T05:28:57.674Z,1776.00
2022-08-26T05:29:57.653Z,1800.00
2022-08-26T05:30:57.694Z,1760.00
2022-08-26T05:31:57.642Z,1704.00
2022-08-26T05:32:57.630Z,1676.00
2022-08-26T05:33:57.661Z,1664.00
2022-08-26T05:34:57.593Z,1680.00
2022-08-26T05:35:57.606Z,1684.00
2022-08-26T05:36:57.583Z,1688.00
2022-08-26T05:37:57.552Z,1704.00
2022-08-26T05:38:57.544Z,1656.00
2022-08-26T05:39:57.627Z,1572.00
2022-08-26T05:40:57.515Z,1520.00
2022-08-26T05:41:57.523Z,1464.00
2022-08-26T05:42:57.638Z,1412.00
2022-08-26T05:43:57.485Z,1352.00
2022-08-26T05:44:57.463Z,1332.00
2022-08-26T05:45:57.510Z,1296.00
2022-08-26T05:46:57.453Z,1336.00
2022-08-26T05:47:57.428Z,1404.00
2022-08-26T05:48:57.414Z,1404.00
2022-08-26T05:49:57.393Z,1408.00
2022-08-26T05:50:57.399Z,1404.00
2022-08-26T05:51:57.384Z,1436.00
2022-08-26T05:52:57.457Z,1516.00
2022-08-26T05:53:57.346Z,1652.00
2022-08-26T05:54:57.513Z,1748.00
2022-08-26T05:55:58.143Z,1748.00
2022-08-26T05:56:57.314Z,1740.00
2022-08-26T05:57:57.481Z,1788.00
2022-08-26T05:58:58.483Z,1836.00
2022-08-26T05:59:57.273Z,1820.00
2022-08-26T06:00:57.261Z,1876.00
2022-08-26T06:01:57.365Z,2016.00
2022-08-26T06:02:57.375Z,2400.00
2022-08-26T06:03:57.246Z,2472.00
2022-08-26T06:04:57.219Z,2336.00
2022-08-26T06:05:57.192Z,2312.00
2022-08-26T06:06:57.192Z,2320.00
2022-08-26T06:07:57.166Z,2112.00
2022-08-26T06:08:57.170Z,2024.00
2022-08-26T06:10:21.336Z,2156.00
2022-08-26T06:10:58.131Z,2296.00
2022-08-26T06:11:57.114Z,2292.00
2022-08-26T06:12:57.103Z,2248.00
2022-08-26T06:14:01.212Z,2156.00
2022-08-26T06:14:58.074Z,2240.00
2022-08-26T06:15:57.096Z,2192.00
2022-08-26T06:16:57.065Z,2328.00
2022-08-26T06:17:57.045Z,2356.00
2022-08-26T06:18:57.044Z,2332.00
2022-08-26T06:19:57.024Z,2320.00
2022-08-26T06:20:58.283Z,2348.00
2022-08-26T06:21:57.013Z,2424.00
2022-08-26T06:22:56.993Z,2524.00
2022-08-26T06:23:56.955Z,2512.00
2022-08-26T06:24:56.943Z,2424.00
2022-08-26T06:25:57.044Z,2320.00
2022-08-26T06:26:56.943Z,2336.00
2022-08-26T06:27:56.909Z,2476.00
2022-08-26T06:28:56.898Z,2572.00
2022-08-26T06:29:56.979Z,2692.00
2022-08-26T06:30:57.026Z,2888.00
2022-08-26T06:31:56.871Z,2948.00
2022-08-26T06:32:56.843Z,2856.00
2022-08-26T06:33:56.831Z,2816.00
2022-08-26T06:34:56.823Z,2816.00
2022-08-26T06:35:56.813Z,2840.00
2022-08-26T06:36:56.803Z,2920.00
2022-08-26T06:37:56.792Z,2936.00
2022-08-26T06:38:56.774Z,2992.00
2022-08-26T06:39:56.797Z,2920.00
2022-08-26T06:40:57.854Z,2692.00
2022-08-26T06:41:56.733Z,2700.00
2022-08-26T06:42:56.714Z,2864.00
2022-08-26T06:43:56.713Z,3028.00
2022-08-26T06:44:56.704Z,3128.00
2022-08-26T06:45:56.705Z,3212.00
2022-08-26T06:46:56.663Z,3156.00
2022-08-26T06:47:56.654Z,3112.00
2022-08-26T06:48:56.634Z,3164.00
2022-08-26T06:49:56.613Z,3212.00
2022-08-26T06:50:56.614Z,3312.00
2022-08-26T06:51:56.617Z,3456.00
2022-08-26T06:52:56.584Z,3456.00
2022-08-26T06:53:56.563Z,3412.00
2022-08-26T06:54:56.563Z,3600.00
2022-08-26T06:55:56.582Z,3644.00
2022-08-26T06:56:56.553Z,3700.00
2022-08-26T06:57:56.535Z,3688.00
2022-08-26T06:58:56.504Z,3588.00
2022-08-26T06:59:56.532Z,3580.00
2022-08-26T07:00:59.526Z,3624.00
2022-08-26T07:01:57.509Z,3552.00
2022-08-26T07:02:56.527Z,3456.00
2022-08-26T07:03:57.108Z,3480.00
2022-08-26T07:04:56.774Z,3504.00
2022-08-26T07:05:56.404Z,3512.00
2022-08-26T07:06:56.404Z,3548.00
2022-08-26T07:07:56.394Z,3656.00
2022-08-26T07:08:56.373Z,3744.00
2022-08-26T07:09:56.355Z,3884.00
2022-08-26T07:10:56.344Z,4072.00
2022-08-26T07:11:56.381Z,4096.00
2022-08-26T07:12:56.334Z,4152.00
2022-08-26T07:13:56.316Z,4120.00
2022-08-26T07:14:56.304Z,3972.00
2022-08-26T07:15:57.365Z,3824.00
2022-08-26T07:16:56.264Z,3832.00
2022-08-26T07:17:56.284Z,3812.00
2022-08-26T07:18:56.244Z,3736.00
2022-08-26T07:19:56.226Z,3764.00
2022-08-26T07:20:56.214Z,3692.00
2022-08-26T07:21:56.214Z,3688.00
2022-08-26T07:22:56.192Z,3612.00
2022-08-26T07:24:01.535Z,3480.00
2022-08-26T07:24:57.166Z,3492.00
2022-08-26T07:25:56.200Z,3500.00
2022-08-26T07:26:56.155Z,3560.00
2022-08-26T07:27:56.126Z,3668.00
2022-08-26T07:28:56.115Z,3716.00
2022-08-26T07:29:56.095Z,3764.00
2022-08-26T07:30:56.174Z,3856.00
2022-08-26T07:31:56.320Z,3916.00
2022-08-26T07:32:56.085Z,3940.00
2022-08-26T07:33:56.045Z,4072.00
2022-08-26T07:34:56.034Z,4132.00
2022-08-26T07:35:56.026Z,4156.00
2022-08-26T07:36:56.005Z,4216.00
2022-08-26T07:37:57.162Z,4152.00
2022-08-26T07:38:55.986Z,4124.00
2022-08-26T07:39:56.032Z,4100.00
2022-08-26T07:40:55.965Z,3956.00
2022-08-26T07:41:55.945Z,3828.00
2022-08-26T07:42:55.944Z,3848.00
2022-08-26T07:43:55.915Z,3944.00
2022-08-26T07:44:55.909Z,4056.00
2022-08-26T07:45:55.897Z,4080.00
2022-08-26T07:46:55.888Z,4012.00
2022-08-26T07:47:55.885Z,3872.00
2022-08-26T07:48:55.855Z,3780.00
2022-08-26T07:49:55.845Z,3712.00
2022-08-26T07:50:55.826Z,3700.00
2022-08-26T07:51:55.875Z,3692.00
2022-08-26T07:52:55.806Z,3672.00
2022-08-26T07:53:55.795Z,3772.00
2022-08-26T07:54:55.794Z,3956.00
2022-08-26T07:55:55.803Z,4136.00
2022-08-26T07:56:56.022Z,4140.00
2022-08-26T07:57:55.756Z,4176.00
2022-08-26T07:58:55.779Z,4272.00
2022-08-26T07:59:55.716Z,4420.00
2022-08-26T08:00:55.709Z,4548.00
2022-08-26T08:01:55.724Z,4652.00
2022-08-26T08:02:55.678Z,4652.00
2022-08-26T08:03:55.665Z,4536.00
2022-08-26T08:04:55.715Z,4412.00
2022-08-26T08:05:55.645Z,4332.00
2022-08-26T08:06:55.649Z,4264.00
2022-08-26T08:08:26.503Z,4124.00
2022-08-26T08:08:56.606Z,4032.00
2022-08-26T08:09:55.606Z,4092.00
2022-08-26T08:10:55.575Z,4200.00
2022-08-26T08:11:55.568Z,4280.00
2022-08-26T08:12:55.556Z,4360.00
2022-08-26T08:13:56.397Z,4416.00
2022-08-26T08:14:55.518Z,4500.00
2022-08-26T08:15:55.514Z,4544.00
2022-08-26T08:16:55.695Z,4608.00
2022-08-26T08:17:57.624Z,4744.00
2022-08-26T08:18:55.566Z,4972.00
2022-08-26T08:19:55.467Z,5152.00
2022-08-26T08:21:10.904Z,5196.00
2022-08-26T08:21:56.447Z,5104.00
2022-08-26T08:22:55.417Z,5044.00
2022-08-26T08:23:55.409Z,5112.00
2022-08-26T08:24:55.577Z,5264.00
2022-08-26T08:25:55.506Z,5292.00
2022-08-26T08:26:55.387Z,5168.00
2022-08-26T08:27:55.368Z,5116.00
2022-08-26T08:28:55.345Z,5172.00
2022-08-26T08:29:55.327Z,5256.00
2022-08-26T08:30:55.375Z,5256.00
2022-08-26T08:31:56.573Z,5216.00
2022-08-26T08:32:55.289Z,5236.00
2022-08-26T08:33:55.280Z,5300.00
2022-08-26T08:34:55.348Z,5384.00
2022-08-26T08:35:55.247Z,5388.00
2022-08-26T08:36:55.256Z,5288.00
2022-08-26T08:37:55.236Z,5132.00
2022-08-26T08:38:55.217Z,4992.00
2022-08-26T08:39:55.249Z,4972.00
2022-08-26T08:40:55.187Z,5040.00
2022-08-26T08:41:55.407Z,5116.00
2022-08-26T08:42:55.173Z,5120.00
2022-08-26T08:43:55.157Z,5132.00
2022-08-26T08:44:55.148Z,5140.00
2022-08-26T08:45:55.208Z,5152.00
2022-08-26T08:46:55.148Z,5180.00
2022-08-26T08:47:55.097Z,5220.00
2022-08-26T08:48:55.088Z,5244.00
2022-08-26T08:49:55.068Z,5172.00
2022-08-26T08:50:55.071Z,5036.00
2022-08-26T08:51:55.072Z,4908.00
2022-08-26T08:52:55.028Z,4680.00
2022-08-26T08:53:55.088Z,4472.00
2022-08-26T08:54:55.008Z,4248.00
2022-08-26T08:55:55.017Z,3984.00
2022-08-26T08:56:54.998Z,3868.00
2022-08-26T08:57:54.967Z,3928.00
2022-08-26T08:58:56.782Z,4040.00
2022-08-26T08:59:54.938Z,4052.00
2022-08-26T09:00:55.009Z,4056.00
2022-08-26T09:01:54.917Z,4068.00
2022-08-26T09:02:54.928Z,4048.00
2022-08-26T09:03:54.889Z,4032.00
2022-08-26T09:04:54.879Z,4108.00
2022-08-26T09:05:55.260Z,4160.00
2022-08-26T09:06:54.909Z,4168.00
2022-08-26T09:07:54.849Z,4160.00
2022-08-26T09:08:54.860Z,4120.00
2022-08-26T09:09:54.818Z,4084.00
2022-08-26T09:10:54.817Z,4104.00
2022-08-26T09:11:54.799Z,4180.00
2022-08-26T09:12:54.782Z,4192.00
2022-08-26T09:13:54.760Z,4232.00
2022-08-26T09:14:54.748Z,4368.00
2022-08-26T09:15:54.729Z,4440.00
2022-08-26T09:16:54.777Z,4416.00
2022-08-26T09:17:54.730Z,4412.00
2022-08-26T09:18:54.719Z,4468.00
2022-08-26T09:19:54.688Z,4532.00
2022-08-26T09:20:54.678Z,4544.00
2022-08-26T09:21:54.670Z,4492.00
2022-08-26T09:22:54.649Z,4416.00
2022-08-26T09:23:54.629Z,4340.00
2022-08-26T09:24:54.619Z,4272.00
2022-08-26T09:26:54.610Z,4376.00
2022-08-26T09:27:54.579Z,4448.00
2022-08-26T09:28:54.580Z,4496.00
2022-08-26T09:29:54.558Z,4420.00
2022-08-26T09:30:54.588Z,4276.00
2022-08-26T09:31:54.549Z,4208.00
2022-08-26T09:32:55.729Z,4228.00
2022-08-26T09:33:54.508Z,4340.00
2022-08-26T09:34:54.499Z,4456.00
2022-08-26T09:35:54.480Z,4420.00
2022-08-26T09:36:54.480Z,4308.00
2022-08-26T09:37:54.546Z,4272.00
2022-08-26T09:38:54.460Z,4356.00
2022-08-26T09:39:54.454Z,4548.00
2022-08-26T09:40:58.962Z,4700.00
2022-08-26T09:41:55.400Z,4700.00
2022-08-26T09:42:54.400Z,4696.00
2022-08-26T09:43:54.379Z,4836.00
2022-08-26T09:44:54.372Z,5140.00
2022-08-26T09:45:58.405Z,5372.00
2022-08-26T09:46:55.340Z,5476.00
2022-08-26T09:47:54.330Z,5484.00
2022-08-26T09:48:54.321Z,5588.00
2022-08-26T09:49:54.317Z,5900.00
2022-08-26T09:50:54.298Z,6172.00
2022-08-26T09:51:54.310Z,6348.00
2022-08-26T09:52:54.271Z,6348.00
2022-08-26T09:53:54.250Z,6220.00
2022-08-26T09:54:54.251Z,6064.00
2022-08-26T09:55:54.251Z,5904.00
2022-08-26T09:56:54.213Z,5924.00
2022-08-26T09:57:54.212Z,6016.00
2022-08-26T09:58:54.192Z,5928.00
2022-08-26T09:59:54.185Z,5736.00
2022-08-26T10:00:54.208Z,5588.00
2022-08-26T10:01:54.245Z,5512.00
2022-08-26T10:02:57.942Z,5628.00
2022-08-26T10:03:54.202Z,5936.00
2022-08-26T10:04:54.107Z,6352.00
2022-08-26T10:05:54.091Z,6680.00
2022-08-26T10:06:54.082Z,6736.00
2022-08-26T10:07:54.283Z,6512.00
2022-08-26T10:08:54.239Z,6292.00
2022-08-26T10:09:54.041Z,6248.00
2022-08-26T10:10:54.034Z,6312.00
2022-08-26T10:11:54.011Z,6348.00
2022-08-26T10:12:54.021Z,6348.00
2022-08-26T10:13:54.002Z,6332.00
2022-08-26T10:14:54.002Z,6268.00
2022-08-26T10:15:53.962Z,6248.00
2022-08-26T10:16:54.020Z,6360.00
2022-08-26T10:17:53.942Z,6548.00
2022-08-26T10:18:58.108Z,6848.00
2022-08-26T10:19:57.046Z,6936.00
2022-08-26T10:20:53.926Z,6884.00
2022-08-26T10:21:54.074Z,6820.00
2022-08-26T10:22:53.900Z,6764.00
2022-08-26T10:23:53.855Z,6804.00
2022-08-26T10:24:55.258Z,6984.00
2022-08-26T10:25:53.832Z,7228.00
2022-08-26T10:26:54.822Z,7328.00
2022-08-26T10:27:53.882Z,7264.00
2022-08-26T10:28:53.802Z,7076.00
2022-08-26T10:29:53.783Z,6880.00
2022-08-26T10:30:53.801Z,6748.00
2022-08-26T10:31:53.782Z,6736.00
2022-08-26T10:32:54.770Z,6972.00
2022-08-26T10:33:57.996Z,7056.00
2022-08-26T10:34:54.714Z,6836.00
2022-08-26T10:35:53.704Z,6736.00
2022-08-26T10:37:14.592Z,6780.00
2022-08-26T10:37:54.691Z,6804.00
2022-08-26T10:38:53.663Z,6840.00
2022-08-26T10:39:59.037Z,6884.00
2022-08-26T10:40:54.645Z,7020.00
2022-08-26T10:41:53.624Z,7108.00
2022-08-26T10:42:53.633Z,6928.00
2022-08-26T10:43:53.593Z,6912.00
2022-08-26T10:45:00.682Z,7072.00
2022-08-26T10:45:53.596Z,7308.00
2022-08-26T10:46:53.570Z,7360.00
2022-08-26T10:47:53.559Z,7384.00
2022-08-26T10:48:53.540Z,7568.00
2022-08-26T10:49:55.577Z,7988.00
2022-08-26T10:50:54.511Z,8376.00
2022-08-26T10:51:53.500Z,8700.00
2022-08-26T10:52:53.500Z,9036.00
2022-08-26T10:53:53.471Z,9424.00
2022-08-26T10:54:53.468Z,10232.00
2022-08-26T10:55:53.449Z,11272.00
2022-08-26T10:56:53.448Z,11948.00
2022-08-26T10:57:53.438Z,12060.00
2022-08-26T10:58:53.420Z,11864.00
2022-08-26T10:59:53.399Z,11136.00
2022-08-26T11:00:53.478Z,10692.00
2022-08-26T11:01:53.410Z,10488.00
2022-08-26T11:02:53.371Z,10716.00
2022-08-26T11:03:53.360Z,12012.00
2022-08-26T11:04:53.339Z,13288.00
2022-08-26T11:05:53.333Z,12960.00
2022-08-26T11:06:53.320Z,10324.00
2022-08-26T11:07:53.302Z,9264.00
2022-08-26T11:08:53.304Z,8916.00
2022-08-26T11:09:53.267Z,8752.00
2022-08-26T11:10:53.255Z,8560.00
2022-08-26T11:11:53.249Z,8476.00
2022-08-26T11:12:53.417Z,8504.00
2022-08-26T11:13:53.218Z,8496.00
2022-08-26T11:14:59.069Z,8716.00
2022-08-26T11:15:54.190Z,9292.00
2022-08-26T11:16:53.242Z,9372.00
2022-08-26T11:17:53.201Z,9676.00
2022-08-26T11:18:53.201Z,10492.00
2022-08-26T11:20:02.200Z,10604.00
2022-08-26T11:20:54.142Z,10504.00
2022-08-26T11:21:53.113Z,10164.00
2022-08-26T11:22:53.112Z,9760.00
2022-08-26T11:23:53.103Z,9640.00
2022-08-26T11:24:53.103Z,9820.00
2022-08-26T11:25:53.072Z,10292.00
2022-08-26T11:26:56.173Z,10952.00
2022-08-26T11:27:53.114Z,11496.00
2022-08-26T11:28:53.032Z,11748.00
2022-08-26T11:29:53.013Z,11824.00
2022-08-26T11:30:57.855Z,11792.00
2022-08-26T11:31:54.042Z,11664.00
2022-08-26T11:32:53.025Z,11476.00
2022-08-26T11:33:52.963Z,11288.00
2022-08-26T11:34:52.953Z,10980.00
2022-08-26T11:35:52.963Z,10740.00
2022-08-26T11:36:52.931Z,10676.00
2022-08-26T11:37:52.927Z,11200.00
2022-08-26T11:38:52.905Z,11644.00
2022-08-26T11:39:55.461Z,11560.00
2022-08-26T11:40:52.884Z,11232.00
2022-08-26T11:41:53.086Z,10972.00
2022-08-26T11:42:52.865Z,10816.00
2022-08-26T11:43:52.834Z,10592.00
2022-08-26T11:44:52.824Z,10420.00
2022-08-26T11:45:52.840Z,10500.00
2022-08-26T11:46:52.804Z,10684.00
2022-08-26T11:47:52.785Z,10888.00
2022-08-26T11:48:52.794Z,11116.00
2022-08-26T11:49:52.763Z,11256.00
2022-08-26T11:50:52.755Z,11272.00
2022-08-26T11:51:52.745Z,10604.00
2022-08-26T11:52:52.758Z,10428.00
2022-08-26T11:53:52.723Z,10340.00
2022-08-26T11:54:52.704Z,9952.00
2022-08-26T11:55:52.685Z,9584.00
2022-08-26T11:56:52.688Z,9400.00
2022-08-26T11:57:52.666Z,9320.00
2022-08-26T11:58:52.655Z,9456.00
2022-08-26T11:59:52.640Z,9780.00
2022-08-26T12:00:52.628Z,10144.00
2022-08-26T12:01:52.615Z,10612.00
2022-08-26T12:02:52.765Z,11224.00
2022-08-26T12:03:52.701Z,11784.00
2022-08-26T12:04:52.576Z,12184.00
2022-08-26T12:05:52.566Z,12368.00
2022-08-26T12:06:53.403Z,12456.00
2022-08-26T12:07:53.151Z,12620.00
2022-08-26T12:08:52.528Z,12704.00
2022-08-26T12:09:52.507Z,13032.00
2022-08-26T12:10:52.507Z,13600.00
2022-08-26T12:11:52.486Z,13884.00
2022-08-26T12:12:53.487Z,13516.00
2022-08-26T12:13:52.457Z,12860.00
2022-08-26T12:14:52.447Z,12416.00
2022-08-26T12:15:52.435Z,12180.00
2022-08-26T12:16:52.506Z,12560.00
2022-08-26T12:17:54.644Z,13008.00
2022-08-26T12:18:52.397Z,13068.00
2022-08-26T12:19:52.386Z,13012.00
2022-08-26T12:20:52.368Z,12660.00
2022-08-26T12:21:52.356Z,12516.00
2022-08-26T12:22:52.367Z,13092.00
2022-08-26T12:23:52.328Z,14372.00
2022-08-26T12:24:52.326Z,13248.00
2022-08-26T12:25:52.308Z,13640.00
2022-08-26T12:26:52.307Z,14496.00
2022-08-26T12:27:53.996Z,14956.00
2022-08-26T12:28:52.275Z,14488.00
2022-08-26T12:29:52.259Z,15296.00
2022-08-26T12:30:52.249Z,17632.00
2022-08-26T12:31:52.357Z,27168.00
2022-08-26T12:32:57.711Z,18336.00
2022-08-26T12:33:53.246Z,36864.00
2022-08-26T12:34:52.228Z,14380.00
2022-08-26T12:35:56.225Z,13400.00
2022-08-26T12:36:52.200Z,13628.00
2022-08-26T12:37:52.159Z,14832.00
2022-08-26T12:38:53.739Z,15488.00
2022-08-26T12:39:52.151Z,14740.00
2022-08-26T12:40:52.122Z,14176.00
2022-08-26T12:41:52.110Z,14488.00
2022-08-26T12:42:52.089Z,15136.00
2022-08-26T12:43:52.093Z,14388.00
2022-08-26T12:44:54.247Z,15456.00
2022-08-26T12:45:52.093Z,21024.00
2022-08-26T12:46:52.040Z,24288.00
2022-08-26T12:47:52.030Z,21152.00
2022-08-26T12:48:52.030Z,18400.00
2022-08-26T12:49:52.009Z,25120.00
2022-08-26T12:50:51.991Z,44448.00
2022-08-26T12:51:51.992Z,33440.00
2022-08-26T12:52:51.961Z,15744.00
2022-08-26T12:53:51.974Z,12412.00
2022-08-26T12:54:56.563Z,10772.00
2022-08-26T12:55:52.930Z,9312.00
2022-08-26T12:56:51.971Z,8224.00
2022-08-26T12:57:51.920Z,7700.00
2022-08-26T12:58:51.922Z,7828.00
2022-08-26T12:59:51.880Z,8204.00
2022-08-26T13:00:52.002Z,8648.00
2022-08-26T13:01:51.980Z,9632.00
2022-08-26T13:02:51.840Z,10204.00
2022-08-26T13:03:51.842Z,8376.00
2022-08-26T13:04:51.811Z,7536.00
2022-08-26T13:05:51.810Z,7192.00
2022-08-26T13:06:51.791Z,7276.00
2022-08-26T13:07:51.781Z,7860.00
2022-08-26T13:08:51.775Z,8748.00
2022-08-26T13:09:51.753Z,9612.00
2022-08-26T13:10:51.733Z,10532.00
2022-08-26T13:11:51.733Z,12184.00
2022-08-26T13:12:51.713Z,17184.00
2022-08-26T13:13:51.781Z,19968.00
2022-08-26T13:14:51.703Z,20064.00
2022-08-26T13:15:51.710Z,26560.00
2022-08-26T13:16:51.664Z,26976.00
2022-08-26T13:17:51.655Z,48288.00
2022-08-26T13:18:51.648Z,42528.00
2022-08-26T13:19:51.624Z,22176.00
2022-08-26T13:20:51.605Z,16288.00
2022-08-26T13:21:51.597Z,16320.00
2022-08-26T13:22:53.836Z,17248.00
2022-08-26T13:23:52.594Z,17984.00
2022-08-26T13:24:51.555Z,19360.00
2022-08-26T13:25:51.545Z,23264.00
2022-08-26T13:26:51.536Z,47072.00
2022-08-26T13:27:51.525Z,22176.00
2022-08-26T13:29:01.988Z,20288.00
2022-08-26T13:29:52.504Z,18464.00
2022-08-26T13:30:51.486Z,16384.00
2022-08-26T13:31:51.565Z,15040.00
2022-08-26T13:32:51.468Z,13860.00
2022-08-26T13:33:51.466Z,13092.00
2022-08-26T13:34:51.538Z,13248.00
2022-08-26T13:35:51.426Z,14132.00
2022-08-26T13:36:51.411Z,15872.00
2022-08-26T13:37:51.419Z,18848.00
2022-08-26T13:38:51.912Z,22656.00
2022-08-26T13:39:51.433Z,19936.00
2022-08-26T13:40:51.357Z,21952.00
2022-08-26T13:41:51.357Z,17856.00
2022-08-26T13:42:51.337Z,15136.00
2022-08-26T13:43:51.347Z,12460.00
2022-08-26T13:44:51.307Z,11280.00
2022-08-26T13:45:51.298Z,10776.00
2022-08-26T13:46:51.289Z,10948.00
2022-08-26T13:47:51.298Z,11672.00
2022-08-26T13:48:51.279Z,12376.00
2022-08-26T13:49:51.247Z,12244.00
2022-08-26T13:50:51.238Z,12020.00
2022-08-26T13:51:51.218Z,12928.00
2022-08-26T13:52:51.215Z,33696.00
2022-08-26T13:53:51.209Z,12788.00
2022-08-26T13:54:51.188Z,12376.00
2022-08-26T13:55:51.259Z,12648.00
2022-08-26T13:56:51.159Z,12472.00
2022-08-26T13:57:51.149Z,12204.00
2022-08-26T13:58:51.153Z,11980.00
2022-08-26T13:59:51.118Z,11944.00
2022-08-26T14:00:51.143Z,11680.00
2022-08-26T14:01:51.159Z,11740.00
2022-08-26T14:02:51.110Z,12356.00
2022-08-26T14:03:51.255Z,12316.00
2022-08-26T14:04:51.060Z,12288.00
2022-08-26T14:05:51.049Z,13152.00
2022-08-26T14:06:51.042Z,14660.00
2022-08-26T14:07:51.019Z,14316.00
2022-08-26T14:08:51.013Z,13140.00
2022-08-26T14:09:51.001Z,12420.00
2022-08-26T14:10:50.981Z,12436.00
2022-08-26T14:11:54.805Z,13340.00
2022-08-26T14:12:50.961Z,12872.00
2022-08-26T14:13:50.949Z,12332.00
2022-08-26T14:14:50.940Z,11512.00
2022-08-26T14:15:50.970Z,10676.00
2022-08-26T14:16:59.061Z,9988.00
2022-08-26T14:17:51.891Z,9468.00
2022-08-26T14:18:51.122Z,8960.00
2022-08-26T14:19:50.870Z,8404.00
2022-08-26T14:20:50.860Z,8076.00
2022-08-26T14:21:50.842Z,8192.00
2022-08-26T14:23:12.716Z,8440.00
2022-08-26T14:23:51.821Z,8468.00
2022-08-26T14:24:50.822Z,8556.00
2022-08-26T14:25:50.793Z,8508.00
2022-08-26T14:26:50.789Z,8184.00
2022-08-26T14:27:50.771Z,8100.00
2022-08-26T14:28:50.761Z,8492.00
2022-08-26T14:29:50.751Z,7828.00
2022-08-26T14:30:50.741Z,7784.00
2022-08-26T14:31:50.712Z,7812.00
2022-08-26T14:32:50.721Z,8128.00
2022-08-26T14:33:50.691Z,8344.00
2022-08-26T14:34:50.692Z,8564.00
2022-08-26T14:35:50.671Z,8328.00
2022-08-26T14:36:50.662Z,8100.00
2022-08-26T14:37:50.644Z,7880.00
2022-08-26T14:38:50.633Z,8204.00
2022-08-26T14:39:50.639Z,8708.00
2022-08-26T14:40:50.613Z,9168.00
2022-08-26T14:41:53.709Z,9244.00
2022-08-26T14:42:52.899Z,9176.00
2022-08-26T14:43:50.566Z,9060.00
2022-08-26T14:44:50.573Z,8884.00
2022-08-26T14:45:50.543Z,8676.00
2022-08-26T14:46:50.577Z,8456.00
2022-08-26T14:47:50.514Z,8208.00
2022-08-26T14:48:50.512Z,8044.00
2022-08-26T14:49:50.499Z,7788.00
2022-08-26T14:50:50.484Z,7748.00
2022-08-26T14:51:50.465Z,8004.00
2022-08-26T14:52:50.454Z,7936.00
2022-08-26T14:53:50.442Z,7676.00
2022-08-26T14:54:53.720Z,7124.00
2022-08-26T14:55:50.453Z,6884.00
2022-08-26T14:56:50.423Z,6952.00
2022-08-26T14:57:50.392Z,7104.00
2022-08-26T14:58:50.386Z,6972.00
2022-08-26T14:59:50.607Z,6728.00
2022-08-26T15:00:50.354Z,6740.00
2022-08-26T15:01:50.386Z,6748.00
2022-08-26T15:02:50.470Z,6508.00
2022-08-26T15:03:50.315Z,6412.00
2022-08-26T15:04:50.425Z,6576.00
2022-08-26T15:05:50.295Z,6808.00
2022-08-26T15:06:50.286Z,6808.00
2022-08-26T15:07:50.264Z,6452.00
2022-08-26T15:08:50.255Z,5824.00
2022-08-26T15:09:50.255Z,5456.00
2022-08-26T15:10:50.225Z,5408.00
2022-08-26T15:11:50.207Z,5448.00
2022-08-26T15:12:50.203Z,5324.00
2022-08-26T15:13:50.185Z,5228.00
2022-08-26T15:14:50.205Z,5140.00
2022-08-26T15:15:50.243Z,5076.00
2022-08-26T15:16:50.158Z,5088.00
2022-08-26T15:17:50.137Z,5048.00
2022-08-26T15:18:50.127Z,5060.00
2022-08-26T15:19:50.124Z,4708.00
2022-08-26T15:20:50.105Z,4740.00
2022-08-26T15:21:50.086Z,4964.00
2022-08-26T15:22:50.075Z,5132.00
2022-08-26T15:23:50.056Z,5200.00
2022-08-26T15:24:53.642Z,5188.00
2022-08-26T15:25:50.058Z,5140.00
2022-08-26T15:26:50.018Z,5360.00
2022-08-26T15:27:49.998Z,5844.00
2022-08-26T15:28:49.998Z,5348.00
2022-08-26T15:29:49.978Z,5236.00
2022-08-26T15:30:50.039Z,5296.00
2022-08-26T15:31:49.947Z,5704.00
2022-08-26T15:32:49.945Z,5976.00
2022-08-26T15:33:49.937Z,5440.00
2022-08-26T15:34:49.917Z,6216.00
2022-08-26T15:35:49.906Z,6924.00
2022-08-26T15:36:49.887Z,7180.00
2022-08-26T15:38:49.858Z,7744.00
2022-08-26T15:39:49.939Z,7856.00
2022-08-26T15:40:49.848Z,7788.00
2022-08-26T15:41:49.817Z,7760.00
2022-08-26T15:42:57.552Z,7600.00
2022-08-26T15:43:50.788Z,7160.00
2022-08-26T15:44:49.778Z,7056.00
2022-08-26T15:45:49.777Z,7344.00
2022-08-26T15:46:49.816Z,7604.00
2022-08-26T15:48:01.542Z,7292.00
2022-08-26T15:48:50.728Z,6684.00
2022-08-26T15:49:49.708Z,6388.00
2022-08-26T15:50:49.708Z,6068.00
2022-08-26T15:51:49.678Z,5944.00
2022-08-26T15:52:49.668Z,5768.00
2022-08-26T15:53:49.657Z,5528.00
2022-08-26T15:54:49.648Z,5308.00
2022-08-26T15:55:49.639Z,5108.00
2022-08-26T15:56:49.618Z,4856.00
2022-08-26T15:57:49.598Z,4616.00
2022-08-26T15:58:49.597Z,4544.00
2022-08-26T15:59:49.581Z,4456.00
2022-08-26T16:00:49.578Z,4412.00
2022-08-26T16:01:49.587Z,4400.00
2022-08-26T16:02:49.539Z,4444.00
2022-08-26T16:03:49.519Z,4460.00
2022-08-26T16:04:49.509Z,4424.00
2022-08-26T16:05:49.570Z,4392.00
2022-08-26T16:06:49.491Z,4444.00
2022-08-26T16:07:49.469Z,4568.00
2022-08-26T16:08:49.459Z,4752.00
2022-08-26T16:09:52.057Z,4996.00
2022-08-26T16:10:50.764Z,5024.00
2022-08-26T16:11:49.422Z,4664.00
2022-08-26T16:12:49.409Z,4412.00
2022-08-26T16:13:49.391Z,4292.00
2022-08-26T16:14:49.382Z,4300.00
2022-08-26T16:15:49.445Z,4240.00
2022-08-26T16:16:49.360Z,4016.00
2022-08-26T16:17:49.349Z,3720.00
2022-08-26T16:18:49.384Z,3504.00
2022-08-26T16:19:49.319Z,3308.00
2022-08-26T16:20:57.401Z,3128.00
2022-08-26T16:21:50.301Z,2932.00
2022-08-26T16:22:49.280Z,2788.00
2022-08-26T16:23:49.269Z,2760.00
2022-08-26T16:24:49.260Z,2728.00
2022-08-26T16:25:49.240Z,2676.00
2022-08-26T16:26:49.251Z,2512.00
2022-08-26T16:27:49.221Z,2320.00
2022-08-26T16:28:49.210Z,2120.00
2022-08-26T16:29:49.191Z,1948.00
2022-08-26T16:30:49.213Z,1812.00
2022-08-26T16:31:49.170Z,1728.00
2022-08-26T16:32:49.159Z,1652.00
2022-08-26T16:33:49.140Z,1592.00